Time;durP1;ratioP1;P1;durP2;ratioP2;P2;SDS_P1;SDS_P2;PMS_P1;PMS_P2;Temp;Humidity;BMP_temperature;BMP_pressure;BME280_temperature;BME280_humidity;BME280_pressure;Samples;Min_cycle;Max_cycle;Signal;HPM_P1;HPM_P2
2022/03/31 00:00:53;;;;;;;7.07;2.15;;;;;;;;;;5097252;28;20040;-84
2022/03/31 00:03:38;;;;;;;9.68;2.80;;;;;;;;;;5104199;28;20475;-85
2022/03/31 00:06:24;;;;;;;8.10;2.00;;;;;;;;;;5097317;28;20040;-84
2022/03/31 00:09:09;;;;;;;13.90;2.55;;;;;;;;;;5103753;28;20048;-83
2022/03/31 00:11:55;;;;;;;13.93;2.17;;;;;;;;;;5103738;28;20047;-84
2022/03/31 00:14:40;;;;;;;11.65;2.97;;;;;;;;;;5097495;28;20077;-83
2022/03/31 00:17:26;;;;;;;9.90;2.78;;;;;;;;;;5104763;28;20048;-84
2022/03/31 00:20:12;;;;;;;14.85;4.32;;;;;;;;;;5104133;28;20048;-84
2022/03/31 00:22:58;;;;;;;23.17;4.30;;;;;;;;;;5096764;28;20044;-84
2022/03/31 00:25:44;;;;;;;17.25;4.65;;;;;;;;;;5097472;28;20040;-84
2022/03/31 00:28:29;;;;;;;16.88;4.70;;;;;;;;;;5103851;28;20044;-83
2022/03/31 00:31:15;;;;;;;17.58;4.70;;;;;;;;;;5096162;28;20044;-82
2022/03/31 00:34:02;;;;;;;24.38;4.22;;;;;;;;;;5088541;28;20040;-81
2022/03/31 00:36:47;;;;;;;15.95;4.80;;;;;;;;;;5103153;28;20044;-83
2022/03/31 00:39:33;;;;;;;23.08;4.50;;;;;;;;;;5103263;28;20040;-82
2022/03/31 00:42:18;;;;;;;21.05;4.47;;;;;;;;;;5097243;28;20040;-84
2022/03/31 00:45:10;;;;;;;21.23;4.85;;;;;;;;;;5102178;28;20048;-84
2022/03/31 00:47:56;;;;;;;21.42;5.30;;;;;;;;;;5103511;28;20044;-85
2022/03/31 00:50:42;;;;;;;15.20;4.35;;;;;;;;;;5096998;28;20040;-83
2022/03/31 00:53:28;;;;;;;9.90;3.72;;;;;;;;;;5096994;28;20383;-84
2022/03/31 00:56:16;;;;;;;11.52;3.35;;;;;;;;;;5081676;28;20048;-82
2022/03/31 00:59:05;;;;;;;8.65;2.80;;;;;;;;;;5096080;28;20036;-85
2022/03/31 01:01:51;;;;;;;17.55;3.22;;;;;;;;;;5096135;28;20480;-83
2022/03/31 01:04:36;;;;;;;6.25;2.22;;;;;;;;;;5102846;28;20044;-82
2022/03/31 01:07:21;;;;;;;9.13;2.38;;;;;;;;;;5102748;28;20404;-82
2022/03/31 01:10:08;;;;;;;38.30;14.77;;;;;;;;;;5096230;28;20479;-82
2022/03/31 01:12:53;;;;;;;11.20;3.10;;;;;;;;;;5095533;28;20039;-83
2022/03/31 01:15:39;;;;;;;11.68;3.03;;;;;;;;;;5096416;28;20044;-84
2022/03/31 01:18:25;;;;;;;15.82;2.78;;;;;;;;;;5099701;28;20048;-81
2022/03/31 01:21:10;;;;;;;14.38;3.50;;;;;;;;;;5100081;28;20048;-80
2022/03/31 01:23:57;;;;;;;10.00;2.53;;;;;;;;;;5109519;28;20048;-82
2022/03/31 01:26:42;;;;;;;10.43;2.70;;;;;;;;;;5097330;28;20043;-82
2022/03/31 01:29:27;;;;;;;7.05;2.72;;;;;;;;;;5096289;28;20040;-83
2022/03/31 01:32:13;;;;;;;12.30;3.92;;;;;;;;;;5095634;28;20144;-82
2022/03/31 01:34:58;;;;;;;14.60;3.55;;;;;;;;;;5080323;28;20048;-83
2022/03/31 01:37:44;;;;;;;11.07;2.70;;;;;;;;;;5087217;28;20048;-83
2022/03/31 01:40:29;;;;;;;11.38;3.10;;;;;;;;;;5100861;28;20048;-84
2022/03/31 01:43:15;;;;;;;19.88;3.50;;;;;;;;;;5102194;28;20059;-82
2022/03/31 01:46:01;;;;;;;12.38;2.80;;;;;;;;;;5095252;28;20040;-84
2022/03/31 01:48:46;;;;;;;10.90;3.10;;;;;;;;;;5095181;28;20036;-82
2022/03/31 01:51:32;;;;;;;12.05;2.65;;;;;;;;;;5095282;28;20048;-85
2022/03/31 01:54:17;;;;;;;12.32;3.20;;;;;;;;;;5079647;28;20480;-83
2022/03/31 01:57:04;;;;;;;12.85;3.33;;;;;;;;;;5102111;28;20472;-84
2022/03/31 01:59:49;;;;;;;10.40;3.10;;;;;;;;;;5095717;28;20044;-82
2022/03/31 02:02:34;;;;;;;15.07;3.75;;;;;;;;;;5094760;28;20036;-84
2022/03/31 02:05:21;;;;;;;12.90;2.58;;;;;;;;;;5094884;28;20044;-82
2022/03/31 02:08:06;;;;;;;12.98;2.90;;;;;;;;;;5086345;28;20040;-82
2022/03/31 02:10:52;;;;;;;19.63;3.17;;;;;;;;;;5094989;28;20047;-82
2022/03/31 02:13:38;;;;;;;10.48;2.63;;;;;;;;;;5095211;28;20384;-81
2022/03/31 02:16:23;;;;;;;12.88;3.33;;;;;;;;;;5086600;28;20480;-83
2022/03/31 02:19:09;;;;;;;13.18;2.70;;;;;;;;;;5094578;28;20039;-81
2022/03/31 02:21:55;;;;;;;13.98;3.20;;;;;;;;;;5094574;28;20043;-80
2022/03/31 02:24:40;;;;;;;7.65;2.30;;;;;;;;;;5101818;28;20088;-82
2022/03/31 02:27:26;;;;;;;10.30;2.75;;;;;;;;;;5101281;28;20483;-80
2022/03/31 02:30:11;;;;;;;6.85;2.40;;;;;;;;;;5094200;28;20464;-82
2022/03/31 02:32:59;;;;;;;6.45;2.03;;;;;;;;;;5094519;28;20044;-83
2022/03/31 02:35:44;;;;;;;8.02;2.58;;;;;;;;;;5101030;28;20047;-84
2022/03/31 02:38:30;;;;;;;15.55;4.47;;;;;;;;;;5094290;28;20040;-83
2022/03/31 02:41:15;;;;;;;14.15;4.28;;;;;;;;;;5100907;28;20048;-83
2022/03/31 02:44:01;;;;;;;18.58;4.43;;;;;;;;;;5078629;28;20040;-83
2022/03/31 02:46:48;;;;;;;11.07;2.80;;;;;;;;;;5093636;28;20044;-83
2022/03/31 02:49:33;;;;;;;11.40;2.85;;;;;;;;;;5094069;28;20040;-86
2022/03/31 02:52:18;;;;;;;10.07;3.40;;;;;;;;;;5095160;28;20048;-83
2022/03/31 02:58:09;;;;;;;11.32;2.58;;;;;;;;;;5100569;28;20048;-85
2022/03/31 03:00:54;;;;;;;10.98;2.63;;;;;;;;;;5093207;28;20048;-86
2022/03/31 03:03:40;;;;;;;11.13;3.28;;;;;;;;;;5093627;28;20468;-83
2022/03/31 03:06:26;;;;;;;13.32;2.92;;;;;;;;;;5093757;28;20051;-85
2022/03/31 03:09:11;;;;;;;4.28;1.85;;;;;;;;;;5093884;28;20043;-83
2022/03/31 03:11:56;;;;;;;12.77;3.30;;;;;;;;;;5085329;28;20051;-83
2022/03/31 03:14:41;;;;;;;8.90;3.30;;;;;;;;;;5078813;28;20056;-83
2022/03/31 03:17:26;;;;;;;11.60;2.70;;;;;;;;;;5093320;28;20048;-82
2022/03/31 03:20:13;;;;;;;4.72;1.85;;;;;;;;;;5100719;28;20040;-84
2022/03/31 03:22:59;;;;;;;7.78;2.85;;;;;;;;;;5085381;28;20052;-82
2022/03/31 03:25:45;;;;;;;20.35;3.60;;;;;;;;;;5093519;28;20480;-83
2022/03/31 03:28:31;;;;;;;12.55;3.17;;;;;;;;;;5094284;28;20369;-82
2022/03/31 03:31:17;;;;;;;5.38;1.67;;;;;;;;;;5093422;28;20060;-85
2022/03/31 03:34:02;;;;;;;4.53;1.88;;;;;;;;;;5094120;28;20048;-82
2022/03/31 03:36:48;;;;;;;4.53;1.63;;;;;;;;;;5100367;28;20047;-84
2022/03/31 03:39:34;;;;;;;9.57;2.78;;;;;;;;;;5093655;28;20036;-81
2022/03/31 03:42:19;;;;;;;15.02;2.80;;;;;;;;;;5100521;28;20048;-80
2022/03/31 03:45:09;;;;;;;7.63;2.38;;;;;;;;;;5093272;28;20472;-81
2022/03/31 03:47:54;;;;;;;5.75;3.08;;;;;;;;;;5093499;28;20048;-82
2022/03/31 03:50:40;;;;;;;8.82;2.10;;;;;;;;;;5093502;28;20484;-81
2022/03/31 03:53:26;;;;;;;22.77;9.95;;;;;;;;;;5100325;28;20052;-82
2022/03/31 03:56:11;;;;;;;16.10;4.65;;;;;;;;;;5093533;28;20040;-83
2022/03/31 03:58:57;;;;;;;7.63;2.63;;;;;;;;;;5093008;28;20040;-81
2022/03/31 04:01:42;;;;;;;9.80;2.78;;;;;;;;;;5096278;28;20044;-83
2022/03/31 04:04:31;;;;;;;12.07;3.78;;;;;;;;;;5103290;28;20048;-83
2022/03/31 04:07:16;;;;;;;17.58;5.93;;;;;;;;;;5094294;28;20044;-81
2022/03/31 04:10:02;;;;;;;18.80;5.55;;;;;;;;;;5088976;28;20411;-83
2022/03/31 04:12:49;;;;;;;16.98;3.70;;;;;;;;;;5095653;28;20052;-84
2022/03/31 04:15:34;;;;;;;8.80;3.58;;;;;;;;;;5073176;28;20488;-84
2022/03/31 04:18:20;;;;;;;15.75;4.60;;;;;;;;;;5074133;28;20049;-81
2022/03/31 04:21:05;;;;;;;16.10;3.33;;;;;;;;;;5083372;28;20044;-83
2022/03/31 04:23:50;;;;;;;14.60;3.30;;;;;;;;;;5076834;28;20049;-84
2022/03/31 04:26:35;;;;;;;13.15;2.88;;;;;;;;;;5076449;28;20048;-84
2022/03/31 04:29:21;;;;;;;12.98;2.92;;;;;;;;;;5083405;28;20485;-86
2022/03/31 04:32:07;;;;;;;11.95;2.83;;;;;;;;;;5077207;28;20048;-84
2022/03/31 04:34:52;;;;;;;14.13;3.22;;;;;;;;;;5076219;28;20049;-85
2022/03/31 04:37:38;;;;;;;14.32;3.85;;;;;;;;;;5083390;28;20044;-86
2022/03/31 04:40:23;;;;;;;16.90;3.58;;;;;;;;;;5076426;28;20048;-83
2022/03/31 04:43:09;;;;;;;17.75;3.28;;;;;;;;;;5081817;28;20416;-83
2022/03/31 04:45:55;;;;;;;17.30;3.63;;;;;;;;;;5076390;28;20052;-82
2022/03/31 04:48:41;;;;;;;13.77;3.55;;;;;;;;;;5090692;28;20036;-84
2022/03/31 04:51:27;;;;;;;24.65;5.90;;;;;;;;;;5095006;28;20476;-83
2022/03/31 04:54:12;;;;;;;22.90;6.45;;;;;;;;;;5095970;28;20480;-83
2022/03/31 04:56:58;;;;;;;49.60;17.70;;;;;;;;;;5083474;28;20052;-84
2022/03/31 04:59:44;;;;;;;140.52;53.35;;;;;;;;;;5094171;28;20052;-85
2022/03/31 05:02:29;;;;;;;38.00;10.63;;;;;;;;;;5098778;28;20047;-85
2022/03/31 05:05:15;;;;;;;24.23;7.07;;;;;;;;;;5092046;28;20040;-85
2022/03/31 05:08:02;;;;;;;19.60;3.95;;;;;;;;;;5096211;28;20044;-84
2022/03/31 05:10:50;;;;;;;31.67;5.93;;;;;;;;;;5101425;28;20047;-84
2022/03/31 05:13:36;;;;;;;28.75;9.10;;;;;;;;;;5096601;28;20047;-84
2022/03/31 05:16:21;;;;;;;27.33;8.18;;;;;;;;;;5094417;28;20052;-84
2022/03/31 05:19:11;;;;;;;18.83;5.30;;;;;;;;;;5081262;28;20036;-84
2022/03/31 05:22:05;;;;;;;27.58;5.40;;;;;;;;;;5096136;28;20036;-83
2022/03/31 05:24:50;;;;;;;44.33;6.65;;;;;;;;;;5088232;28;20044;-83
2022/03/31 05:27:53;;;;;;;25.83;5.57;;;;;;;;;;5096653;28;20439;-83
2022/03/31 05:30:53;;;;;;;39.60;6.20;;;;;;;;;;5084428;28;20052;-85
2022/03/31 05:33:56;;;;;;;21.08;5.82;;;;;;;;;;5095756;28;20476;-84
2022/03/31 05:37:23;;;;;;;21.02;7.90;;;;;;;;;;5095365;28;20404;-84
2022/03/31 05:40:34;;;;;;;17.55;6.82;;;;;;;;;;5095676;28;20056;-84
2022/03/31 05:43:31;;;;;;;28.02;9.80;;;;;;;;;;5102415;28;20052;-83
2022/03/31 05:46:26;;;;;;;28.50;11.48;;;;;;;;;;5102179;28;20048;-82
2022/03/31 05:53:38;;;;;;;36.85;13.98;;;;;;;;;;5064269;28;20399;-84
2022/03/31 05:56:47;;;;;;;;;;;;;;;;;;;;;
2022/03/31 05:59:48;;;;;;;33.25;10.10;;;;;;;;;;5094418;28;20269;-82
2022/03/31 06:02:39;;;;;;;28.50;11.65;;;;;;;;;;5101806;28;20086;-82
2022/03/31 06:05:52;;;;;;;31.77;11.02;;;;;;;;;;5094437;28;20048;-82
2022/03/31 06:08:49;;;;;;;23.60;10.32;;;;;;;;;;5094614;28;20404;-82
2022/03/31 06:11:55;;;;;;;35.60;12.60;;;;;;;;;;5094579;28;20052;-85
2022/03/31 06:15:01;;;;;;;34.33;12.18;;;;;;;;;;5101586;28;20040;-83
2022/03/31 06:18:25;;;;;;;;;;;;;;;;;;;;;
2022/03/31 06:21:25;;;;;;;36.03;10.80;;;;;;;;;;5077199;28;20472;-83
2022/03/31 06:24:23;;;;;;;26.50;10.98;;;;;;;;;;5106277;28;20044;-82
2022/03/31 06:27:12;;;;;;;37.83;11.63;;;;;;;;;;5091817;28;20040;-82
2022/03/31 06:29:58;;;;;;;23.77;7.68;;;;;;;;;;5107205;28;20052;-81
2022/03/31 06:32:52;;;;;;;36.75;14.25;;;;;;;;;;5099826;28;20036;-81
2022/03/31 06:49:16;;;;;;;23.98;7.15;;;;;;;;;;5020999;28;20046;-82
2022/03/31 06:52:20;;;;;;;36.60;7.47;;;;;;;;;;5015196;28;20049;-80
2022/03/31 06:55:10;;;;;;;35.22;14.60;;;;;;;;;;5014489;28;20046;-82
2022/03/31 06:58:04;;;;;;;51.22;13.73;;;;;;;;;;5073799;28;20048;-84
2022/03/31 07:00:49;;;;;;;32.15;10.32;;;;;;;;;;5094204;28;20048;-83
2022/03/31 07:03:41;;;;;;;42.55;14.13;;;;;;;;;;5100579;28;20048;-83
2022/03/31 07:06:26;;;;;;;49.58;13.65;;;;;;;;;;5079326;28;20036;-82
2022/03/31 07:09:12;;;;;;;39.22;10.43;;;;;;;;;;5100436;28;20385;-84
2022/03/31 07:11:57;;;;;;;36.92;8.23;;;;;;;;;;5100809;28;20487;-82
2022/03/31 07:14:44;;;;;;;37.40;8.30;;;;;;;;;;5085505;28;20052;-82
2022/03/31 07:17:30;;;;;;;37.17;10.48;;;;;;;;;;5093719;28;20040;-83
2022/03/31 07:20:16;;;;;;;43.65;9.38;;;;;;;;;;5101098;28;20047;-83
2022/03/31 07:23:01;;;;;;;34.20;7.80;;;;;;;;;;5085450;28;20055;-84
2022/03/31 07:25:50;;;;;;;25.63;7.03;;;;;;;;;;5100630;28;20052;-84
2022/03/31 07:28:35;;;;;;;28.60;5.78;;;;;;;;;;5078239;28;20048;-84
2022/03/31 07:31:26;;;;;;;28.17;6.65;;;;;;;;;;5093166;28;20048;-83
2022/03/31 07:34:18;;;;;;;21.95;6.53;;;;;;;;;;5078830;28;20040;-82
2022/03/31 07:37:22;;;;;;;25.00;6.35;;;;;;;;;;5100271;28;20400;-84
2022/03/31 07:40:08;;;;;;;26.75;6.53;;;;;;;;;;5094059;28;20040;-84
2022/03/31 07:42:53;;;;;;;21.20;6.38;;;;;;;;;;5078293;28;20044;-85
2022/03/31 07:45:39;;;;;;;37.03;8.70;;;;;;;;;;5084826;28;20044;-83
2022/03/31 07:48:29;;;;;;;24.55;7.18;;;;;;;;;;5100248;28;20472;-86
2022/03/31 07:51:25;;;;;;;24.13;6.65;;;;;;;;;;5092724;28;20052;-82
2022/03/31 07:54:16;;;;;;;23.42;6.13;;;;;;;;;;5096132;28;20044;-82
2022/03/31 07:57:13;;;;;;;25.83;6.65;;;;;;;;;;5096987;28;20407;-83
2022/03/31 08:00:03;;;;;;;26.40;7.32;;;;;;;;;;5097773;28;20044;-84
2022/03/31 08:03:16;;;;;;;16.10;4.40;;;;;;;;;;5072189;28;20040;-84
2022/03/31 08:12:12;;;;;;;;;;;;;;;;;;;;;
2022/03/31 08:15:44;;;;;;;32.13;6.65;;;;;;;;;;5015274;28;20046;-83
2022/03/31 08:27:07;;;;;;;32.53;8.50;;;;;;;;;;4898524;29;20061;-82
2022/03/31 08:29:52;;;;;;;;;;;;;;;;;;4968878;28;20450;-83
2022/03/31 08:32:39;;;;;;;31.10;7.78;;;;;;;;;;5013172;28;20401;-82
2022/03/31 08:35:28;;;;;;;30.88;9.20;;;;;;;;;;5066173;28;20040;-83
2022/03/31 08:38:14;;;;;;;21.08;5.00;;;;;;;;;;5100732;28;20043;-82
2022/03/31 08:41:03;;;;;;;27.77;6.88;;;;;;;;;;5100104;28;20040;-82
2022/03/31 08:43:48;;;;;;;13.13;3.75;;;;;;;;;;5102362;28;20047;-83
2022/03/31 08:46:34;;;;;;;29.58;8.10;;;;;;;;;;5093587;28;20044;-84
2022/03/31 08:49:21;;;;;;;37.38;15.23;;;;;;;;;;5100420;28;20040;-85
2022/03/31 08:52:07;;;;;;;18.20;7.22;;;;;;;;;;5094381;28;20052;-82
2022/03/31 08:54:55;;;;;;;16.02;5.47;;;;;;;;;;5101106;28;20040;-81
2022/03/31 08:57:49;;;;;;;14.68;4.75;;;;;;;;;;5103266;28;20035;-81
2022/03/31 09:00:35;;;;;;;31.17;8.55;;;;;;;;;;5080288;28;20043;-82
2022/03/31 09:03:20;;;;;;;27.85;8.55;;;;;;;;;;5101693;28;20396;-84
2022/03/31 09:06:09;;;;;;;31.33;8.45;;;;;;;;;;5086642;28;20040;-82
2022/03/31 09:09:20;;;;;;;25.00;7.05;;;;;;;;;;5095008;28;20468;-81
2022/03/31 09:12:26;;;;;;;24.88;7.78;;;;;;;;;;5095405;28;20044;-84
2022/03/31 09:15:17;;;;;;;31.55;9.27;;;;;;;;;;5080403;28;20044;-83
2022/03/31 09:18:03;;;;;;;36.33;9.27;;;;;;;;;;5095605;28;20032;-82
2022/03/31 09:21:05;;;;;;;23.35;5.53;;;;;;;;;;5095294;28;20047;-83
2022/03/31 09:24:16;;;;;;;19.10;5.95;;;;;;;;;;5095450;28;20044;-82
2022/03/31 09:27:24;;;;;;;22.73;6.03;;;;;;;;;;5095585;28;20043;-83
2022/03/31 09:30:12;;;;;;;19.73;5.88;;;;;;;;;;5105282;28;20044;-83
2022/03/31 09:33:28;;;;;;;25.70;6.72;;;;;;;;;;5093983;28;20488;-82
2022/03/31 09:36:18;;;;;;;20.95;6.25;;;;;;;;;;5091099;28;20387;-82
2022/03/31 09:39:27;;;;;;;21.15;5.65;;;;;;;;;;5098383;28;20036;-82
2022/03/31 09:42:14;;;;;;;11.90;3.60;;;;;;;;;;5095089;28;20036;-81
2022/03/31 09:45:15;;;;;;;17.63;5.05;;;;;;;;;;5101856;28;20044;-82
2022/03/31 09:48:04;;;;;;;16.65;4.28;;;;;;;;;;5095237;28;20475;-83
2022/03/31 09:50:50;;;;;;;9.70;4.43;;;;;;;;;;5100684;28;20048;-83
2022/03/31 09:53:39;;;;;;;9.52;3.22;;;;;;;;;;5095061;28;20056;-83
2022/03/31 09:56:25;;;;;;;6.18;2.88;;;;;;;;;;5101482;28;20036;-84
2022/03/31 09:59:12;;;;;;;21.02;3.78;;;;;;;;;;5094255;28;20051;-82
2022/03/31 10:01:58;;;;;;;11.65;3.10;;;;;;;;;;5093642;28;20411;-83
2022/03/31 10:04:48;;;;;;;11.80;3.70;;;;;;;;;;5091853;28;20032;-82
2022/03/31 10:07:34;;;;;;;13.30;4.10;;;;;;;;;;5093354;28;20044;-81
2022/03/31 10:10:20;;;;;;;12.25;3.97;;;;;;;;;;5097138;28;20043;-84
2022/03/31 10:13:19;;;;;;;12.60;2.92;;;;;;;;;;5091055;28;20040;-81
2022/03/31 10:16:22;;;;;;;12.85;4.43;;;;;;;;;;5096906;28;20047;-84
2022/03/31 10:19:12;;;;;;;7.80;2.95;;;;;;;;;;5097584;28;20063;-84
2022/03/31 10:22:04;;;;;;;7.20;3.78;;;;;;;;;;5082659;28;20047;-85
2022/03/31 10:24:56;;;;;;;5.15;2.45;;;;;;;;;;5097291;28;20056;-84
2022/03/31 10:27:50;;;;;;;9.55;3.22;;;;;;;;;;5091607;28;20052;-83
2022/03/31 10:30:37;;;;;;;7.07;3.88;;;;;;;;;;5091580;28;20391;-81
2022/03/31 10:33:42;;;;;;;8.13;4.60;;;;;;;;;;5081263;28;20496;-82
2022/03/31 10:36:39;;;;;;;5.03;2.17;;;;;;;;;;5085494;28;20056;-84
2022/03/31 10:39:25;;;;;;;12.48;4.07;;;;;;;;;;5098751;28;20273;-85
2022/03/31 10:42:12;;;;;;;12.20;2.67;;;;;;;;;;5093282;28;20036;-85
2022/03/31 10:45:35;;;;;;;9.15;2.70;;;;;;;;;;5091161;28;20114;-84
2022/03/31 10:48:25;;;;;;;6.97;3.05;;;;;;;;;;5082421;28;20040;-84
2022/03/31 10:51:14;;;;;;;6.47;2.83;;;;;;;;;;5094415;28;20052;-83
2022/03/31 10:54:33;;;;;;;5.45;2.38;;;;;;;;;;5093683;28;20048;-86
2022/03/31 10:57:19;;;;;;;9.20;3.03;;;;;;;;;;5096041;28;20043;-84
2022/03/31 11:00:07;;;;;;;11.90;3.90;;;;;;;;;;5078751;28;20044;-84
2022/03/31 11:02:55;;;;;;;6.60;2.25;;;;;;;;;;5094174;28;20416;-83
2022/03/31 11:05:47;;;;;;;4.47;1.63;;;;;;;;;;5086132;28;20052;-84
2022/03/31 11:08:44;;;;;;;3.65;1.80;;;;;;;;;;5085704;28;20396;-84
2022/03/31 11:11:29;;;;;;;3.30;2.00;;;;;;;;;;5093681;28;20040;-84
2022/03/31 11:14:18;;;;;;;4.32;1.88;;;;;;;;;;5083939;28;20538;-86
2022/03/31 11:17:04;;;;;;;9.13;3.08;;;;;;;;;;5094176;28;20044;-85
2022/03/31 11:19:50;;;;;;;8.15;2.15;;;;;;;;;;5085028;28;20032;-84
2022/03/31 11:22:54;;;;;;;7.63;1.95;;;;;;;;;;5085542;28;20048;-84
2022/03/31 11:25:48;;;;;;;8.07;1.70;;;;;;;;;;5100192;28;20040;-87
2022/03/31 11:28:37;;;;;;;6.03;2.40;;;;;;;;;;5073552;28;20044;-84
2022/03/31 11:31:24;;;;;;;6.18;1.92;;;;;;;;;;5095329;28;20051;-85
2022/03/31 11:34:22;;;;;;;8.02;1.90;;;;;;;;;;5082455;28;20110;-84
2022/03/31 11:37:47;;;;;;;57.38;3.47;;;;;;;;;;5096198;28;20052;-86
2022/03/31 11:41:16;;;;;;;7.70;2.00;;;;;;;;;;5069444;28;20044;-84
2022/03/31 11:44:02;;;;;;;3.70;1.60;;;;;;;;;;5076407;28;20473;-86
2022/03/31 11:46:49;;;;;;;6.35;1.88;;;;;;;;;;5088670;28;20045;-83
2022/03/31 11:49:34;;;;;;;4.43;1.60;;;;;;;;;;5099955;28;20475;-83
2022/03/31 11:52:28;;;;;;;9.00;1.92;;;;;;;;;;5081892;28;20044;-84
2022/03/31 11:55:13;;;;;;;17.92;3.10;;;;;;;;;;5102763;28;20036;-85
2022/03/31 11:58:00;;;;;;;6.63;1.92;;;;;;;;;;5082956;28;20032;-84
2022/03/31 12:00:49;;;;;;;11.40;2.10;;;;;;;;;;5084260;28;20056;-85
2022/03/31 12:03:37;;;;;;;9.57;2.13;;;;;;;;;;5086746;28;20036;-84
2022/03/31 12:06:23;;;;;;;8.75;2.10;;;;;;;;;;5080074;28;20483;-82
2022/03/31 12:09:08;;;;;;;10.65;3.15;;;;;;;;;;5083610;28;20047;-84
2022/03/31 12:11:57;;;;;;;9.45;1.98;;;;;;;;;;5097891;28;20047;-82
2022/03/31 12:14:56;;;;;;;6.97;1.50;;;;;;;;;;5101337;28;20044;-85
2022/03/31 12:17:41;;;;;;;7.05;2.47;;;;;;;;;;5108907;28;20040;-81
2022/03/31 12:20:28;;;;;;;4.95;1.90;;;;;;;;;;5088630;28;20032;-84
2022/03/31 12:23:20;;;;;;;6.47;1.95;;;;;;;;;;5090597;28;20040;-83
2022/03/31 12:26:16;;;;;;;5.85;2.40;;;;;;;;;;5076781;28;20044;-84
2022/03/31 12:29:02;;;;;;;10.05;1.85;;;;;;;;;;5096433;28;20040;-84
2022/03/31 12:31:48;;;;;;;5.45;1.80;;;;;;;;;;5095732;28;20052;-83
2022/03/31 12:34:41;;;;;;;17.35;2.33;;;;;;;;;;5092016;28;20388;-86
2022/03/31 12:37:28;;;;;;;10.45;1.75;;;;;;;;;;5079723;28;20399;-83
2022/03/31 12:40:16;;;;;;;5.68;2.10;;;;;;;;;;5076275;28;20044;-83
2022/03/31 12:43:01;;;;;;;7.15;1.60;;;;;;;;;;5084837;28;20044;-81
2022/03/31 12:45:46;;;;;;;4.35;1.40;;;;;;;;;;5092762;28;20056;-82
2022/03/31 12:48:32;;;;;;;6.47;2.83;;;;;;;;;;5096538;28;20048;-84
2022/03/31 12:51:24;;;;;;;7.40;2.22;;;;;;;;;;5096484;28;20396;-83
2022/03/31 12:54:40;;;;;;;7.93;1.88;;;;;;;;;;5096912;28;20484;-82
2022/03/31 12:57:27;;;;;;;4.28;1.35;;;;;;;;;;5101837;28;20396;-84
2022/03/31 13:00:13;;;;;;;9.07;3.35;;;;;;;;;;5087748;28;20036;-85
2022/03/31 13:03:00;;;;;;;10.00;2.75;;;;;;;;;;5103527;28;20135;-84
2022/03/31 13:05:48;;;;;;;6.53;1.90;;;;;;;;;;5080676;28;20484;-85
2022/03/31 13:08:34;;;;;;;5.85;1.52;;;;;;;;;;5096333;28;20044;-82
2022/03/31 13:11:21;;;;;;;10.05;2.00;;;;;;;;;;5096573;28;20036;-85
2022/03/31 13:14:06;;;;;;;6.22;1.75;;;;;;;;;;5095763;28;20111;-85
2022/03/31 13:16:52;;;;;;;9.38;1.85;;;;;;;;;;5085297;28;20041;-83
2022/03/31 13:19:37;;;;;;;11.00;2.00;;;;;;;;;;5075536;28;20476;-85
2022/03/31 13:22:28;;;;;;;8.82;1.90;;;;;;;;;;5077450;28;20045;-84
2022/03/31 13:25:16;;;;;;;6.95;1.77;;;;;;;;;;5091122;28;20052;-85
2022/03/31 13:28:01;;;;;;;6.65;1.88;;;;;;;;;;5060407;28;20045;-84
2022/03/31 13:30:46;;;;;;;9.00;1.92;;;;;;;;;;5060430;28;20488;-82
2022/03/31 13:33:32;;;;;;;10.05;2.22;;;;;;;;;;5101972;28;20044;-85
2022/03/31 13:36:18;;;;;;;10.30;2.38;;;;;;;;;;5080554;28;20045;-82
2022/03/31 13:39:10;;;;;;;15.70;2.22;;;;;;;;;;5087197;28;20032;-84
2022/03/31 13:41:56;;;;;;;10.27;2.88;;;;;;;;;;5095354;28;20044;-83
2022/03/31 13:44:42;;;;;;;11.45;2.65;;;;;;;;;;5095483;28;20044;-85
2022/03/31 13:47:27;;;;;;;9.55;2.78;;;;;;;;;;5095373;28;20043;-84
2022/03/31 13:50:15;;;;;;;16.15;2.95;;;;;;;;;;5094891;28;20040;-84
2022/03/31 13:56:04;;;;;;;18.88;3.50;;;;;;;;;;5094878;28;20044;-83
2022/03/31 14:01:55;;;;;;;18.30;4.15;;;;;;;;;;5100856;28;20052;-81
2022/03/31 14:04:47;;;;;;;18.95;3.38;;;;;;;;;;5100551;28;20480;-82
2022/03/31 14:07:32;;;;;;;19.88;5.40;;;;;;;;;;5074237;28;20055;-84
2022/03/31 14:10:18;;;;;;;22.83;4.15;;;;;;;;;;5081938;28;20036;-85
2022/03/31 14:13:12;;;;;;;31.40;4.70;;;;;;;;;;5075096;28;20492;-84
2022/03/31 14:16:02;;;;;;;31.73;7.03;;;;;;;;;;5061919;28;20044;-84
2022/03/31 14:18:51;;;;;;;20.27;4.10;;;;;;;;;;5068354;28;20044;-84
2022/03/31 14:21:38;;;;;;;23.80;4.55;;;;;;;;;;5088125;28;20490;-83
2022/03/31 14:24:24;;;;;;;29.45;5.97;;;;;;;;;;5074878;28;20036;-81
2022/03/31 14:27:11;;;;;;;35.28;5.78;;;;;;;;;;5088492;28;20052;-81
2022/03/31 14:30:01;;;;;;;34.55;8.10;;;;;;;;;;5074627;28;20404;-84
2022/03/31 14:32:48;;;;;;;49.78;14.85;;;;;;;;;;5089575;28;20504;-82
2022/03/31 14:35:35;;;;;;;28.65;6.57;;;;;;;;;;5079892;28;20048;-84
2022/03/31 14:38:25;;;;;;;38.30;11.10;;;;;;;;;;5080561;28;20048;-81
2022/03/31 14:41:12;;;;;;;40.15;8.48;;;;;;;;;;5095923;28;20048;-83
2022/03/31 14:43:59;;;;;;;30.25;6.10;;;;;;;;;;5079079;28;20488;-84
2022/03/31 14:46:44;;;;;;;29.55;5.70;;;;;;;;;;5096520;28;20047;-82
2022/03/31 14:49:30;;;;;;;26.42;5.15;;;;;;;;;;5091053;28;20036;-82
2022/03/31 14:52:16;;;;;;;28.48;5.00;;;;;;;;;;5092954;28;20040;-87
2022/03/31 14:55:01;;;;;;;30.63;5.00;;;;;;;;;;5091481;28;20472;-85
2022/03/31 14:57:47;;;;;;;31.92;4.97;;;;;;;;;;5095555;28;20040;-85
2022/03/31 15:00:35;;;;;;;23.20;3.95;;;;;;;;;;5094382;28;20028;-82
2022/03/31 15:03:21;;;;;;;30.08;5.35;;;;;;;;;;5095002;28;20032;-80
2022/03/31 15:06:06;;;;;;;34.00;7.28;;;;;;;;;;5100667;28;20052;-80
2022/03/31 15:08:52;;;;;;;27.38;6.10;;;;;;;;;;5101945;28;20048;-82
2022/03/31 15:14:41;;;;;;;26.25;6.68;;;;;;;;;;5090054;28;20044;-82
2022/03/31 15:17:28;;;;;;;30.10;7.82;;;;;;;;;;5091795;28;20479;-82
2022/03/31 15:20:13;;;;;;;51.97;6.07;;;;;;;;;;5092810;28;20048;-80
2022/03/31 15:22:59;;;;;;;33.67;7.22;;;;;;;;;;5088142;28;20629;-82
2022/03/31 15:25:45;;;;;;;28.60;5.78;;;;;;;;;;5098812;28;20032;-80
2022/03/31 15:28:30;;;;;;;31.75;8.38;;;;;;;;;;5093104;28;20044;-81
2022/03/31 15:31:17;;;;;;;27.05;5.75;;;;;;;;;;5097240;28;20483;-80
2022/03/31 15:34:03;;;;;;;30.00;6.78;;;;;;;;;;5084708;28;20052;-82
2022/03/31 15:36:52;;;;;;;39.67;10.77;;;;;;;;;;5094333;28;20048;-83
2022/03/31 15:39:37;;;;;;;31.38;9.05;;;;;;;;;;5092304;28;20044;-81
2022/03/31 15:42:23;;;;;;;39.28;11.73;;;;;;;;;;5092408;28;20423;-83
2022/03/31 15:45:09;;;;;;;19.83;4.60;;;;;;;;;;5096624;28;20044;-80
2022/03/31 15:47:55;;;;;;;265.63;115.07;;;;;;;;;;5092628;28;20056;-83
2022/03/31 15:50:40;;;;;;;464.17;226.13;;;;;;;;;;5088433;28;20369;-81
2022/03/31 15:53:25;;;;;;;519.67;299.10;;;;;;;;;;5092745;28;20040;-81
2022/03/31 15:56:11;;;;;;;74.80;25.20;;;;;;;;;;5084732;28;20047;-80
2022/03/31 15:58:56;;;;;;;159.00;82.05;;;;;;;;;;5099575;28;20404;-82
2022/03/31 16:01:42;;;;;;;29.88;11.60;;;;;;;;;;5092655;28;20048;-82
2022/03/31 16:04:28;;;;;;;22.08;6.18;;;;;;;;;;5093181;28;20476;-80
2022/03/31 16:07:13;;;;;;;21.85;5.93;;;;;;;;;;5092262;28;20044;-81
2022/03/31 16:10:04;;;;;;;63.70;31.00;;;;;;;;;;5092801;28;20044;-82
2022/03/31 16:12:50;;;;;;;83.15;44.30;;;;;;;;;;5092634;28;20040;-83
2022/03/31 16:15:35;;;;;;;30.88;11.73;;;;;;;;;;5102552;28;20047;-83
2022/03/31 16:18:20;;;;;;;27.23;9.98;;;;;;;;;;5096312;28;20492;-81
2022/03/31 16:21:07;;;;;;;42.00;17.60;;;;;;;;;;5082532;28;20449;-82
2022/03/31 16:23:53;;;;;;;189.02;88.03;;;;;;;;;;5098238;28;20044;-81
2022/03/31 16:26:39;;;;;;;98.85;44.03;;;;;;;;;;5075979;28;20048;-81
2022/03/31 16:29:24;;;;;;;55.20;23.33;;;;;;;;;;5092514;28;20044;-84
2022/03/31 16:32:10;;;;;;;29.58;10.60;;;;;;;;;;5088461;28;20051;-82
2022/03/31 16:34:56;;;;;;;35.15;12.77;;;;;;;;;;5095556;28;20476;-85
2022/03/31 16:37:42;;;;;;;81.13;41.42;;;;;;;;;;5094758;28;20039;-83
2022/03/31 16:40:27;;;;;;;34.30;15.30;;;;;;;;;;5087736;28;20070;-83
2022/03/31 16:43:13;;;;;;;31.17;11.50;;;;;;;;;;5102237;28;20048;-82
2022/03/31 16:45:59;;;;;;;51.03;16.98;;;;;;;;;;5096214;28;20047;-82
2022/03/31 16:48:46;;;;;;;28.63;7.30;;;;;;;;;;5096508;28;20051;-83
2022/03/31 16:51:32;;;;;;;34.85;12.40;;;;;;;;;;5091437;28;20476;-81
2022/03/31 16:54:17;;;;;;;33.03;10.13;;;;;;;;;;5102836;28;20400;-81
2022/03/31 16:57:05;;;;;;;28.45;8.30;;;;;;;;;;5102329;28;20043;-80
2022/03/31 16:59:50;;;;;;;21.95;5.63;;;;;;;;;;5094657;28;20489;-82
2022/03/31 17:02:36;;;;;;;31.33;9.82;;;;;;;;;;5101742;28;20052;-80
2022/03/31 17:05:21;;;;;;;33.22;8.50;;;;;;;;;;5095992;28;20472;-82
2022/03/31 17:08:08;;;;;;;39.22;10.25;;;;;;;;;;5086735;28;20049;-82
2022/03/31 17:10:53;;;;;;;29.10;6.45;;;;;;;;;;5079906;28;20044;-80
2022/03/31 17:13:39;;;;;;;32.28;9.50;;;;;;;;;;5094727;28;20044;-82
2022/03/31 17:16:25;;;;;;;34.10;9.05;;;;;;;;;;5081958;28;20040;-82
2022/03/31 17:19:11;;;;;;;32.55;9.82;;;;;;;;;;5081941;28;20048;-82
2022/03/31 17:21:56;;;;;;;25.42;5.47;;;;;;;;;;5066688;28;20041;-82
2022/03/31 17:24:42;;;;;;;24.60;8.50;;;;;;;;;;5081763;28;20480;-81
2022/03/31 17:27:27;;;;;;;22.52;5.25;;;;;;;;;;5099737;28;20044;-82